createdAt,value
2018-10-02T00:01:59.073Z,1.40
2018-10-02T00:04:27.241Z,1.60
2018-10-02T00:06:55.341Z,1.80
2018-10-02T00:09:23.498Z,1.57
2018-10-02T00:11:57.147Z,1.60
2018-10-02T00:14:28.681Z,1.50
2018-10-02T00:16:56.943Z,1.50
2018-10-02T00:19:25.073Z,1.50
2018-10-02T00:21:53.201Z,1.70
2018-10-02T00:24:21.366Z,1.57
2018-10-02T00:26:49.496Z,1.50
2018-10-02T00:29:17.629Z,1.60
2018-10-02T00:31:45.818Z,1.67
2018-10-02T00:34:13.909Z,1.40
2018-10-02T00:36:42.039Z,1.50
2018-10-02T00:39:10.173Z,1.57
2018-10-02T00:41:38.349Z,1.47
2018-10-02T00:44:06.991Z,1.60
2018-10-02T00:46:35.098Z,1.37
2018-10-02T00:49:03.249Z,1.43
2018-10-02T00:51:31.353Z,1.43
2018-10-02T00:53:59.645Z,1.50
2018-10-02T00:56:27.761Z,1.60
2018-10-02T00:58:55.961Z,1.50
2018-10-02T01:01:24.077Z,1.50
2018-10-02T01:03:52.205Z,1.70
2018-10-02T01:06:20.334Z,1.40
2018-10-02T01:08:48.495Z,1.50
2018-10-02T01:11:16.705Z,1.30
2018-10-02T01:13:44.822Z,1.40
2018-10-02T01:16:12.941Z,1.50
2018-10-02T01:18:41.098Z,1.37
2018-10-02T01:21:09.257Z,1.40
2018-10-02T01:23:37.449Z,1.67
2018-10-02T01:26:05.893Z,1.30
2018-10-02T01:28:33.996Z,1.60
2018-10-02T01:31:02.161Z,1.30
2018-10-02T01:33:30.306Z,1.30
2018-10-02T01:35:58.489Z,1.60
2018-10-02T01:38:26.592Z,1.60
2018-10-02T01:40:54.718Z,1.40
2018-10-02T01:43:22.830Z,1.20
2018-10-02T01:45:51.111Z,1.40
2018-10-02T01:48:19.273Z,1.30
2018-10-02T01:50:47.416Z,1.10
2018-10-02T01:53:15.513Z,1.40
2018-10-02T01:55:43.779Z,1.43
2018-10-02T01:58:11.938Z,1.30
2018-10-02T02:00:40.092Z,1.67
2018-10-02T02:03:08.193Z,1.27
2018-10-02T02:05:36.366Z,1.17
2018-10-02T02:08:04.601Z,1.30
2018-10-02T02:10:32.711Z,1.20
2018-10-02T02:13:00.826Z,1.40
2018-10-02T02:15:28.969Z,1.30
2018-10-02T02:17:57.250Z,1.30
2018-10-02T02:20:25.417Z,1.20
2018-10-02T02:22:53.562Z,1.40
2018-10-02T02:25:21.702Z,1.40
2018-10-02T02:27:49.816Z,1.37
2018-10-02T02:30:17.934Z,1.30
2018-10-02T02:32:46.150Z,1.33
2018-10-02T02:35:14.296Z,1.40
2018-10-02T02:37:42.497Z,1.40
2018-10-02T02:40:10.620Z,1.30
2018-10-02T02:42:38.768Z,1.37
2018-10-02T02:45:06.988Z,1.30
2018-10-02T02:47:40.621Z,1.27
2018-10-02T02:50:14.164Z,1.40
2018-10-02T02:52:46.936Z,1.53
2018-10-02T02:55:15.453Z,1.10
2018-10-02T02:57:43.838Z,1.20
2018-10-02T03:00:12.103Z,1.13
2018-10-02T03:02:40.238Z,1.20
2018-10-02T03:05:08.446Z,1.43
2018-10-02T03:07:36.593Z,1.37
2018-10-02T03:10:04.766Z,1.27
2018-10-02T03:12:32.932Z,1.47
2018-10-02T03:15:01.053Z,1.30
2018-10-02T03:17:29.253Z,1.40
2018-10-02T03:19:57.389Z,1.47
2018-10-02T03:22:25.650Z,1.30
2018-10-02T03:24:53.849Z,1.30
2018-10-02T03:27:22.041Z,1.10
2018-10-02T03:29:50.227Z,1.23
2018-10-02T03:32:18.365Z,1.40
2018-10-02T03:34:46.488Z,1.23
2018-10-02T03:37:14.586Z,1.30
2018-10-02T03:39:42.742Z,1.40
2018-10-02T03:42:10.850Z,1.30
2018-10-02T03:44:38.998Z,1.23
2018-10-02T03:47:07.146Z,1.20
2018-10-02T03:49:35.328Z,1.40
2018-10-02T03:52:03.998Z,1.13
2018-10-02T03:54:32.234Z,1.17
2018-10-02T03:57:00.377Z,1.30
2018-10-02T03:59:28.661Z,1.20
2018-10-02T04:01:56.858Z,1.10
2018-10-02T04:04:25.025Z,1.30
2018-10-02T04:06:53.203Z,1.13
2018-10-02T04:09:21.387Z,1.17
2018-10-02T04:11:49.561Z,1.10
2018-10-02T04:14:17.837Z,1.00
2018-10-02T04:16:46.032Z,1.20
2018-10-02T04:19:14.226Z,1.00
2018-10-02T04:21:42.361Z,1.10
2018-10-02T04:24:10.559Z,1.20
2018-10-02T04:26:38.769Z,1.10
2018-10-02T04:29:08.131Z,0.97
2018-10-02T04:31:37.516Z,1.17
2018-10-02T04:34:05.970Z,1.20
2018-10-02T04:36:34.081Z,1.00
2018-10-02T04:39:02.271Z,1.20
2018-10-02T04:41:30.388Z,1.00
2018-10-02T04:43:58.636Z,1.20
2018-10-02T04:46:26.819Z,1.10
2018-10-02T04:48:54.957Z,1.10
2018-10-02T04:51:23.062Z,1.13
2018-10-02T04:53:51.284Z,1.27
2018-10-02T04:56:19.619Z,1.00
2018-10-02T04:58:47.675Z,1.17
2018-10-02T05:01:15.801Z,1.20
2018-10-02T05:03:44.057Z,1.20
2018-10-02T05:06:12.232Z,1.10
2018-10-02T05:08:40.415Z,1.20
2018-10-02T05:11:08.523Z,1.20
2018-10-02T05:13:36.653Z,1.17
2018-10-02T05:16:04.898Z,1.00
2018-10-02T05:18:33.141Z,1.30
2018-10-02T05:21:01.319Z,1.00
2018-10-02T05:23:29.451Z,1.17
2018-10-02T05:25:57.737Z,1.20
2018-10-02T05:28:25.834Z,1.30
2018-10-02T05:30:54.021Z,1.10
2018-10-02T05:33:22.190Z,1.10
2018-10-02T05:35:50.349Z,1.13
2018-10-02T05:38:19.492Z,1.10
2018-10-02T05:40:47.909Z,1.10
2018-10-02T05:43:16.099Z,1.10
2018-10-02T05:45:44.393Z,1.10
2018-10-02T05:48:14.353Z,1.10
2018-10-02T05:50:42.687Z,0.90
2018-10-02T05:53:10.834Z,1.00
2018-10-02T05:55:39.025Z,1.10
2018-10-02T05:58:07.186Z,1.10
2018-10-02T06:00:35.327Z,1.03
2018-10-02T06:03:03.498Z,1.20
2018-10-02T06:05:31.616Z,1.00
2018-10-02T06:07:59.882Z,1.00
2018-10-02T06:10:28.034Z,0.90
2018-10-02T06:12:56.205Z,0.80
2018-10-02T06:15:24.314Z,1.30
2018-10-02T06:17:52.752Z,1.10
2018-10-02T06:20:20.878Z,1.00
2018-10-02T06:22:49.262Z,1.30
2018-10-02T06:25:17.415Z,1.10
2018-10-02T06:27:45.631Z,1.10
2018-10-02T06:30:13.811Z,1.07
2018-10-02T06:32:42.041Z,1.00
2018-10-02T06:35:10.254Z,1.00
2018-10-02T06:37:38.406Z,0.90
2018-10-02T06:40:06.600Z,1.10
2018-10-02T06:42:34.846Z,0.80
2018-10-02T06:45:03.068Z,0.97
2018-10-02T06:47:31.220Z,0.93
2018-10-02T06:49:59.386Z,1.00
2018-10-02T06:52:27.748Z,0.97
2018-10-02T06:54:55.813Z,1.10
2018-10-02T06:57:23.935Z,1.20
2018-10-02T06:59:52.148Z,0.90
2018-10-02T07:02:20.434Z,1.10
2018-10-02T07:04:48.581Z,1.00
2018-10-02T07:07:16.879Z,1.10
2018-10-02T07:09:45.000Z,1.30
2018-10-02T07:12:13.210Z,1.17
2018-10-02T07:14:41.411Z,0.80
2018-10-02T07:17:09.578Z,1.00
2018-10-02T07:19:37.757Z,1.20
2018-10-02T07:22:06.002Z,0.90
2018-10-02T07:24:34.123Z,0.93
2018-10-02T07:27:02.351Z,1.00
2018-10-02T07:29:30.398Z,1.00
2018-10-02T07:31:58.525Z,1.23
2018-10-02T07:34:26.667Z,1.10
2018-10-02T07:36:54.867Z,1.10
2018-10-02T07:39:22.967Z,1.00
2018-10-02T07:41:51.138Z,0.80
2018-10-02T07:44:19.284Z,0.90
2018-10-02T07:46:47.458Z,0.90
2018-10-02T07:49:15.662Z,1.03
2018-10-02T07:51:43.922Z,0.80
2018-10-02T07:54:12.197Z,0.90
2018-10-02T07:56:40.561Z,1.00
2018-10-02T07:59:08.706Z,1.10
2018-10-02T08:01:36.964Z,1.27
2018-10-02T08:04:05.093Z,1.13
2018-10-02T08:06:33.455Z,0.90
2018-10-02T08:09:01.729Z,0.90
2018-10-02T08:11:29.882Z,1.10
2018-10-02T08:13:58.103Z,1.07
2018-10-02T08:16:26.262Z,1.10
2018-10-02T08:18:54.531Z,1.00
2018-10-02T08:21:22.693Z,0.90
2018-10-02T08:23:50.948Z,1.00
2018-10-02T08:26:19.111Z,0.97
2018-10-02T08:28:47.265Z,0.90
2018-10-02T08:31:15.503Z,0.90
2018-10-02T08:33:43.678Z,0.90
2018-10-02T08:36:11.893Z,1.10
2018-10-02T08:38:39.969Z,0.83
2018-10-02T08:41:08.110Z,0.90
2018-10-02T08:43:36.482Z,0.80
2018-10-02T08:46:04.606Z,0.90
2018-10-02T08:48:32.838Z,1.10
2018-10-02T08:51:01.055Z,1.07
2018-10-02T08:53:29.387Z,0.87
2018-10-02T08:55:57.518Z,1.00
2018-10-02T08:58:25.897Z,0.90
2018-10-02T09:00:54.439Z,1.10
2018-10-02T09:03:22.551Z,0.97
2018-10-02T09:05:50.700Z,1.00
2018-10-02T09:08:18.822Z,1.07
2018-10-02T09:10:47.187Z,0.97
2018-10-02T09:13:15.454Z,0.90
2018-10-02T09:15:43.800Z,0.90
2018-10-02T09:18:11.956Z,0.80
2018-10-02T09:20:40.267Z,1.00
2018-10-02T09:23:08.434Z,0.97
2018-10-02T09:25:36.698Z,0.90
2018-10-02T09:28:04.913Z,1.20
2018-10-02T09:30:38.595Z,0.90
2018-10-02T09:33:12.989Z,1.00
2018-10-02T09:35:46.686Z,0.97
2018-10-02T09:38:20.466Z,0.93
2018-10-02T09:40:54.196Z,1.00
2018-10-02T09:43:31.008Z,0.90
2018-10-02T09:45:59.589Z,0.90
2018-10-02T09:48:27.783Z,0.90
2018-10-02T09:50:56.037Z,0.80
2018-10-02T09:53:24.166Z,0.90
2018-10-02T09:55:52.356Z,0.87
2018-10-02T09:58:20.500Z,1.00
2018-10-02T10:00:54.935Z,0.90
2018-10-02T10:03:23.018Z,1.00
2018-10-02T10:05:51.133Z,0.90
2018-10-02T10:08:19.546Z,0.80
2018-10-02T10:10:47.815Z,1.00
2018-10-02T10:13:16.190Z,0.87
2018-10-02T10:15:44.502Z,1.00
2018-10-02T10:18:12.629Z,0.80
2018-10-02T10:20:41.171Z,0.90
2018-10-02T10:23:09.341Z,0.93
2018-10-02T10:25:37.502Z,1.07
2018-10-02T10:28:05.689Z,0.93
2018-10-02T10:30:33.845Z,0.80
2018-10-02T10:33:02.038Z,0.90
2018-10-02T10:35:30.176Z,0.80
2018-10-02T10:37:58.321Z,1.00
2018-10-02T10:40:26.584Z,0.90
2018-10-02T10:42:54.786Z,1.03
2018-10-02T10:45:22.894Z,0.80
2018-10-02T10:47:51.066Z,1.03
2018-10-02T10:50:19.193Z,0.80
2018-10-02T10:52:47.464Z,0.83
2018-10-02T10:55:24.281Z,1.00
2018-10-02T10:57:52.438Z,0.90
2018-10-02T11:00:21.581Z,0.80
2018-10-02T11:02:50.162Z,0.83
2018-10-02T11:05:18.545Z,0.90
2018-10-02T11:07:46.802Z,0.73
2018-10-02T11:10:16.567Z,0.70
2018-10-02T11:12:44.792Z,0.80
2018-10-02T11:15:16.388Z,0.80
2018-10-02T11:17:44.641Z,1.10
2018-10-02T11:20:14.758Z,0.90
2018-10-02T11:22:42.886Z,0.87
2018-10-02T11:25:11.274Z,1.00
2018-10-02T11:27:40.794Z,0.80
2018-10-02T11:30:09.405Z,0.87
2018-10-02T11:32:37.893Z,1.20
2018-10-02T11:35:06.136Z,0.90
2018-10-02T11:37:34.366Z,1.00
2018-10-02T11:40:02.653Z,0.80
2018-10-02T11:42:30.855Z,0.73
2018-10-02T11:44:59.104Z,0.90
2018-10-02T11:47:27.282Z,1.00
2018-10-02T11:49:55.682Z,1.00
2018-10-02T11:52:23.945Z,0.80
2018-10-02T11:54:52.411Z,0.73
2018-10-02T11:57:20.973Z,0.70
2018-10-02T11:59:49.326Z,0.83
2018-10-02T12:02:17.637Z,0.70
2018-10-02T12:04:45.764Z,0.60
2018-10-02T12:07:13.942Z,0.80
2018-10-02T12:09:42.232Z,0.80
2018-10-02T12:12:10.782Z,0.90
2018-10-02T12:14:38.994Z,0.80
2018-10-02T12:17:07.101Z,0.70
2018-10-02T12:19:35.376Z,0.90
2018-10-02T12:22:03.482Z,0.73
2018-10-02T12:24:31.634Z,0.80
2018-10-02T12:26:59.744Z,0.97
2018-10-02T12:29:28.037Z,0.60
2018-10-02T12:31:56.222Z,0.70
2018-10-02T12:34:24.434Z,0.73
2018-10-02T12:36:52.602Z,0.80
2018-10-02T12:39:20.923Z,0.80
2018-10-02T12:41:48.994Z,0.80
2018-10-02T12:44:17.322Z,0.83
2018-10-02T12:46:45.521Z,0.80
2018-10-02T12:49:13.802Z,0.90
2018-10-02T12:51:42.099Z,0.70
2018-10-02T12:54:10.218Z,0.80
2018-10-02T12:56:38.411Z,0.77
2018-10-02T12:59:06.528Z,0.90
2018-10-02T13:01:35.617Z,0.80
2018-10-02T13:04:03.761Z,0.80
2018-10-02T13:06:33.838Z,0.80
2018-10-02T13:09:02.094Z,0.87
2018-10-02T13:11:30.450Z,0.77
2018-10-02T13:13:58.647Z,0.80
2018-10-02T13:16:49.966Z,0.63
2018-10-02T13:19:18.124Z,0.70
2018-10-02T13:21:56.769Z,0.80
2018-10-02T13:24:41.518Z,0.80
2018-10-02T13:27:09.704Z,0.70
2018-10-02T13:29:38.485Z,0.70
2018-10-02T13:32:06.805Z,0.80
2018-10-02T13:34:35.480Z,0.73
2018-10-02T13:37:03.906Z,0.80
2018-10-02T13:39:32.359Z,0.60
2018-10-02T13:42:00.756Z,0.80
2018-10-02T13:44:29.314Z,0.87
2018-10-02T13:46:58.750Z,0.90
2018-10-02T13:49:26.965Z,0.80
2018-10-02T13:51:55.245Z,0.70
2018-10-02T13:54:23.494Z,0.70
2018-10-02T13:56:51.724Z,0.70
2018-10-02T13:59:20.040Z,0.80
2018-10-02T14:01:48.263Z,0.60
2018-10-02T14:04:16.521Z,0.73
2018-10-02T14:06:44.690Z,0.80
2018-10-02T14:09:14.213Z,0.63
2018-10-02T14:11:42.466Z,0.90
2018-10-02T14:14:10.662Z,0.80
2018-10-02T14:16:38.880Z,0.80
2018-10-02T14:19:07.074Z,0.80
2018-10-02T14:21:35.232Z,0.90
2018-10-02T14:24:03.439Z,0.70
2018-10-02T14:26:31.618Z,0.80
2018-10-02T14:28:59.775Z,0.70
2018-10-02T14:31:27.966Z,0.80
2018-10-02T14:33:56.117Z,0.80
2018-10-02T14:36:24.395Z,0.73
2018-10-02T14:38:52.646Z,0.70
2018-10-02T14:41:20.900Z,0.90
2018-10-02T14:43:49.118Z,0.80
2018-10-02T14:46:17.481Z,0.80
2018-10-02T14:48:45.634Z,0.70
2018-10-02T14:51:13.796Z,0.80
2018-10-02T14:53:42.161Z,0.77
2018-10-02T14:56:10.426Z,0.63
2018-10-02T14:58:38.598Z,0.87
2018-10-02T15:01:06.977Z,0.70
2018-10-02T15:03:35.105Z,0.90
2018-10-02T15:06:03.278Z,0.70
2018-10-02T15:08:31.434Z,0.90
2018-10-02T15:10:59.577Z,0.70
2018-10-02T15:13:27.817Z,0.90
2018-10-02T15:15:56.024Z,0.90
2018-10-02T15:18:24.874Z,0.77
2018-10-02T15:20:53.252Z,0.70
2018-10-02T15:23:21.421Z,0.80
2018-10-02T15:25:49.851Z,0.80
2018-10-02T15:28:18.017Z,0.73
2018-10-02T15:30:46.295Z,0.70
2018-10-02T15:33:14.555Z,0.80
2018-10-02T15:35:44.196Z,0.70
2018-10-02T15:38:12.521Z,0.70
2018-10-02T15:40:40.853Z,0.77
2018-10-02T15:43:09.153Z,0.70
2018-10-02T15:45:37.310Z,0.83
2018-10-02T15:48:06.714Z,0.70
2018-10-02T15:50:35.136Z,0.77
2018-10-02T15:53:03.346Z,0.73
2018-10-02T15:55:31.481Z,0.80
2018-10-02T15:57:59.625Z,0.80
2018-10-02T16:00:27.974Z,0.70
2018-10-02T16:02:56.307Z,0.70
2018-10-02T16:05:24.818Z,0.80
2018-10-02T16:07:52.963Z,0.77
2018-10-02T16:10:21.207Z,0.67
2018-10-02T16:12:49.355Z,0.80
2018-10-02T16:15:17.729Z,0.80
2018-10-02T16:17:45.927Z,0.83
2018-10-02T16:20:14.148Z,0.80
2018-10-02T16:22:42.417Z,0.90
2018-10-02T16:25:10.552Z,0.73
2018-10-02T16:27:38.882Z,0.80
2018-10-02T16:30:07.064Z,0.80
2018-10-02T16:32:35.252Z,0.90
2018-10-02T16:35:03.410Z,0.90
2018-10-02T16:37:31.536Z,0.90
2018-10-02T16:39:59.682Z,0.80
2018-10-02T16:42:27.825Z,0.80
2018-10-02T16:44:55.979Z,0.90
2018-10-02T16:47:24.341Z,0.97
2018-10-02T16:49:52.526Z,0.90
2018-10-02T16:52:20.677Z,0.83
2018-10-02T16:54:48.847Z,0.90
2018-10-02T16:57:17.056Z,0.90
2018-10-02T16:59:45.152Z,0.77
2018-10-02T17:02:13.290Z,0.90
2018-10-02T17:04:41.517Z,1.00
2018-10-02T17:07:09.718Z,0.90
2018-10-02T17:09:37.923Z,0.80
2018-10-02T17:12:06.047Z,0.97
2018-10-02T17:14:34.391Z,0.70
2018-10-02T17:17:02.574Z,0.97
2018-10-02T17:19:30.712Z,0.97
2018-10-02T17:21:59.050Z,1.00
2018-10-02T17:24:27.240Z,0.80
2018-10-02T17:26:55.422Z,1.00
2018-10-02T17:29:23.638Z,0.90
2018-10-02T17:31:51.936Z,0.90
2018-10-02T17:34:20.114Z,1.07
2018-10-02T17:36:48.254Z,0.80
2018-10-02T17:39:16.398Z,0.93
2018-10-02T17:41:44.641Z,1.10
2018-10-02T17:44:12.926Z,1.00
2018-10-02T17:46:41.109Z,1.10
2018-10-02T17:49:09.479Z,1.00
2018-10-02T17:51:37.678Z,0.80
2018-10-02T17:54:05.929Z,1.00
2018-10-02T17:56:34.905Z,0.90
2018-10-02T17:59:03.571Z,0.87
2018-10-02T18:01:32.119Z,0.80
2018-10-02T18:04:00.320Z,0.90
2018-10-02T18:06:28.527Z,1.10
2018-10-02T18:08:56.856Z,0.97
2018-10-02T18:11:25.220Z,1.07
2018-10-02T18:13:53.390Z,0.80
2018-10-02T18:16:21.546Z,1.00
2018-10-02T18:18:49.757Z,1.27
2018-10-02T18:24:21.345Z,1.00
2018-10-02T18:26:49.482Z,0.90
2018-10-02T18:29:17.573Z,0.97
2018-10-02T18:31:45.704Z,0.97
2018-10-02T18:34:13.823Z,1.10
2018-10-02T18:36:41.948Z,1.00
2018-10-02T18:39:10.073Z,0.93
2018-10-02T18:41:38.286Z,1.00
2018-10-02T18:44:06.542Z,0.90
2018-10-02T18:46:35.253Z,1.10
2018-10-02T18:49:03.428Z,1.10
2018-10-02T18:51:31.506Z,0.87
2018-10-02T18:53:59.650Z,1.37
2018-10-02T18:56:27.844Z,0.90
2018-10-02T18:58:55.957Z,1.00
2018-10-02T19:01:24.108Z,1.20
2018-10-02T19:03:52.273Z,0.97
2018-10-02T19:06:20.491Z,1.10
2018-10-02T19:08:54.042Z,1.10
2018-10-02T19:11:27.579Z,1.00
2018-10-02T19:13:55.670Z,1.10
2018-10-02T19:16:28.922Z,1.20
2018-10-02T19:18:57.057Z,0.90
2018-10-02T19:21:25.199Z,1.00
2018-10-02T19:23:53.365Z,1.13
2018-10-02T19:26:24.447Z,1.10
2018-10-02T19:28:52.554Z,1.00
2018-10-02T19:32:23.739Z,0.90
2018-10-02T19:34:51.865Z,1.10
2018-10-02T19:37:25.602Z,0.97
2018-10-02T19:39:53.772Z,1.10
2018-10-02T19:42:21.903Z,1.20
2018-10-02T19:44:50.027Z,1.00
2018-10-02T19:47:18.236Z,1.03
2018-10-02T19:49:46.299Z,1.07
2018-10-02T19:52:15.745Z,1.10
2018-10-02T19:54:44.301Z,1.00
2018-10-02T19:57:14.962Z,1.10
2018-10-02T19:59:43.067Z,1.10
2018-10-02T20:02:11.154Z,0.93
2018-10-02T20:04:39.324Z,1.30
2018-10-02T20:07:07.443Z,1.10
2018-10-02T20:09:35.590Z,1.13
2018-10-02T20:12:03.700Z,1.00
2018-10-02T20:14:31.810Z,1.20
2018-10-02T20:16:59.954Z,1.07
2018-10-02T20:19:28.427Z,1.00
2018-10-02T20:21:56.717Z,1.20
2018-10-02T20:24:24.834Z,1.20
2018-10-02T20:26:52.957Z,1.17
2018-10-02T20:29:21.083Z,1.07
2018-10-02T20:31:50.539Z,1.17
2018-10-02T20:34:18.705Z,1.03
2018-10-02T20:36:46.926Z,1.13
2018-10-02T20:39:15.001Z,1.13
2018-10-02T20:41:43.220Z,1.13
2018-10-02T20:44:11.337Z,1.40
2018-10-02T20:46:39.454Z,1.23
2018-10-02T20:49:07.623Z,1.43
2018-10-02T20:51:35.673Z,1.20
2018-10-02T20:54:03.758Z,1.20
2018-10-02T20:56:31.870Z,1.40
2018-10-02T20:59:00.036Z,1.30
2018-10-02T21:01:28.385Z,1.40
2018-10-02T21:03:56.516Z,1.20
2018-10-02T21:06:24.845Z,1.20
2018-10-02T21:08:52.949Z,1.23
2018-10-02T21:11:21.054Z,1.00
2018-10-02T21:13:49.206Z,1.50
2018-10-02T21:16:17.352Z,1.00
2018-10-02T21:18:45.447Z,1.20
2018-10-02T21:21:13.574Z,1.20
2018-10-02T21:23:41.697Z,1.40
2018-10-02T21:26:09.802Z,1.50
2018-10-02T21:28:38.006Z,1.30
2018-10-02T21:31:06.222Z,1.20
2018-10-02T21:33:34.373Z,1.30
2018-10-02T21:36:02.486Z,1.10
2018-10-02T21:38:30.815Z,1.50
2018-10-02T21:40:58.934Z,1.20
2018-10-02T21:43:27.077Z,1.60
2018-10-02T21:45:55.267Z,1.40
2018-10-02T21:48:23.433Z,1.30
2018-10-02T21:50:51.502Z,1.30
2018-10-02T21:53:19.678Z,1.40
2018-10-02T21:55:47.807Z,1.30
2018-10-02T21:58:16.006Z,1.20
2018-10-02T22:00:44.118Z,1.27
2018-10-02T22:03:12.247Z,1.50
2018-10-02T22:05:40.374Z,1.40
2018-10-02T22:08:08.491Z,1.43
2018-10-02T22:10:36.651Z,1.60
2018-10-02T22:13:04.971Z,1.47
2018-10-02T22:15:33.155Z,1.20
2018-10-02T22:18:01.291Z,1.23
2018-10-02T22:20:29.447Z,1.37
2018-10-02T22:22:57.755Z,1.27
2018-10-02T22:25:25.966Z,1.30
2018-10-02T22:27:54.335Z,1.43
2018-10-02T22:30:22.552Z,1.40
2018-10-02T22:32:50.969Z,1.23
2018-10-02T22:35:19.150Z,1.10
2018-10-02T22:37:47.466Z,1.30
2018-10-02T22:40:15.661Z,1.50
2018-10-02T22:42:44.159Z,1.30
2018-10-02T22:45:12.327Z,1.30
2018-10-02T22:47:40.498Z,1.50
2018-10-02T22:50:08.654Z,1.40
2018-10-02T22:52:36.810Z,1.30
2018-10-02T22:55:04.984Z,1.50
2018-10-02T22:57:33.212Z,1.40
2018-10-02T23:00:01.359Z,1.30
2018-10-02T23:02:29.497Z,1.20
2018-10-02T23:04:57.591Z,1.70
2018-10-02T23:07:25.721Z,1.27
2018-10-02T23:09:53.845Z,1.57
2018-10-02T23:12:21.953Z,1.30
2018-10-02T23:14:50.073Z,1.50
2018-10-02T23:17:18.178Z,1.50
2018-10-02T23:19:46.337Z,1.30
2018-10-02T23:22:14.507Z,1.50
2018-10-02T23:24:42.639Z,1.50
2018-10-02T23:27:10.766Z,1.37
2018-10-02T23:29:38.886Z,1.67
2018-10-02T23:32:07.122Z,1.57
2018-10-02T23:34:35.234Z,1.53
2018-10-02T23:37:03.354Z,1.50
2018-10-02T23:39:31.461Z,1.30
2018-10-02T23:41:59.625Z,1.50
2018-10-02T23:44:27.905Z,1.33
2018-10-02T23:46:56.383Z,1.37
2018-10-02T23:49:24.543Z,1.40
2018-10-02T23:51:52.690Z,1.30
2018-10-02T23:54:20.908Z,1.37
2018-10-02T23:56:49.078Z,1.50
2018-10-02T23:59:17.514Z,1.50
